Time;durP1;ratioP1;P1;durP2;ratioP2;P2;SDS_P1;SDS_P2;PMS_P1;PMS_P2;Temp;Humidity;BMP_temperature;BMP_pressure;BME280_temperature;BME280_humidity;BME280_pressure;Samples;Min_cycle;Max_cycle;Signal;HPM_P1;HPM_P2
2023/11/29 00:03:05;;;;;;;0.43;0.37;;;;;;;;;;6215533;23;20275;-91
2023/11/29 00:06:12;;;;;;;0.60;0.60;;;;;;;;;;6214833;23;20615;-91
2023/11/29 00:09:18;;;;;;;0.93;0.77;;;;;;;;;;6213640;22;20198;-87
2023/11/29 00:12:23;;;;;;;0.57;0.57;;;;;;;;;;6212992;23;20183;-90
2023/11/29 00:15:29;;;;;;;0.60;0.60;;;;;;;;;;6214782;23;20199;-89
2023/11/29 00:18:34;;;;;;;0.83;0.80;;;;;;;;;;6214234;23;20610;-89
2023/11/29 00:21:44;;;;;;;1.00;0.90;;;;;;;;;;6214850;23;20167;-92
2023/11/29 00:24:50;;;;;;;0.50;0.50;;;;;;;;;;6212640;23;20167;-90
2023/11/29 00:27:55;;;;;;;2.77;1.53;;;;;;;;;;6213208;23;20224;-90
2023/11/29 00:31:01;;;;;;;2.23;1.17;;;;;;;;;;6214955;22;20152;-89
2023/11/29 00:34:07;;;;;;;0.70;0.70;;;;;;;;;;6215718;22;20611;-91
2023/11/29 00:37:14;;;;;;;0.73;0.73;;;;;;;;;;6213454;23;20163;-90
2023/11/29 00:40:20;;;;;;;0.43;0.43;;;;;;;;;;6214030;23;20219;-90
2023/11/29 00:43:26;;;;;;;0.57;0.57;;;;;;;;;;6213014;23;20167;-92
2023/11/29 00:46:31;;;;;;;1.23;1.07;;;;;;;;;;6214730;23;20219;-90
2023/11/29 00:49:37;;;;;;;2.40;0.93;;;;;;;;;;6214487;23;20256;-90
2023/11/29 00:52:45;;;;;;;0.80;0.80;;;;;;;;;;6213247;23;20154;-91
2023/11/29 00:55:50;;;;;;;0.60;0.60;;;;;;;;;;6214054;23;20163;-89
2023/11/29 00:58:55;;;;;;;0.60;0.60;;;;;;;;;;6214990;23;20178;-89
2023/11/29 01:02:00;;;;;;;0.53;0.53;;;;;;;;;;6213691;22;20233;-90
2023/11/29 01:05:06;;;;;;;0.50;0.50;;;;;;;;;;6214268;23;20155;-90
2023/11/29 01:08:13;;;;;;;1.97;1.00;;;;;;;;;;6214272;23;20222;-90
2023/11/29 01:11:20;;;;;;;0.40;0.40;;;;;;;;;;6214572;23;20162;-91
2023/11/29 01:14:25;;;;;;;1.03;0.90;;;;;;;;;;6213429;23;20219;-90
2023/11/29 01:17:30;;;;;;;1.47;1.20;;;;;;;;;;6213265;23;20171;-89
2023/11/29 01:20:36;;;;;;;0.60;0.60;;;;;;;;;;6211879;23;20150;-89
2023/11/29 01:23:42;;;;;;;2.67;1.80;;;;;;;;;;6213202;22;20163;-91
2023/11/29 01:26:49;;;;;;;0.60;0.60;;;;;;;;;;6212286;23;20254;-91
2023/11/29 01:29:54;;;;;;;0.90;0.90;;;;;;;;;;6211389;23;20215;-89
2023/11/29 01:32:59;;;;;;;0.67;0.67;;;;;;;;;;6211535;23;20167;-92
2023/11/29 01:36:08;;;;;;;1.30;0.67;;;;;;;;;;6212318;23;20171;-89
2023/11/29 01:39:15;;;;;;;0.83;0.70;;;;;;;;;;6211796;23;20214;-89
2023/11/29 01:42:20;;;;;;;0.50;0.50;;;;;;;;;;6212486;23;20493;-90
2023/11/29 01:45:25;;;;;;;6.03;1.17;;;;;;;;;;6211180;23;20178;-87
2023/11/29 01:48:32;;;;;;;0.70;0.70;;;;;;;;;;6210670;23;20215;-92
2023/11/29 01:51:37;;;;;;;0.53;0.53;;;;;;;;;;6211021;23;20178;-91
2023/11/29 01:54:44;;;;;;;0.50;0.50;;;;;;;;;;6212444;23;20167;-90
2023/11/29 01:57:50;;;;;;;1.37;0.60;;;;;;;;;;6211807;22;20622;-90
2023/11/29 02:00:55;;;;;;;1.20;0.87;;;;;;;;;;6211765;23;20167;-89
2023/11/29 02:04:00;;;;;;;2.43;1.13;;;;;;;;;;6216938;23;20224;-89
2023/11/29 02:07:06;;;;;;;0.53;0.53;;;;;;;;;;6214967;23;20190;-90
2023/11/29 02:10:13;;;;;;;0.57;0.57;;;;;;;;;;6214809;22;20191;-90
2023/11/29 02:13:19;;;;;;;0.73;0.73;;;;;;;;;;6215661;23;20698;-90
2023/11/29 02:16:24;;;;;;;1.10;1.00;;;;;;;;;;6213574;22;20163;-90
2023/11/29 02:19:29;;;;;;;0.60;0.60;;;;;;;;;;6214129;22;20175;-89
2023/11/29 02:22:37;;;;;;;0.60;0.60;;;;;;;;;;6213356;23;20171;-90
2023/11/29 02:25:45;;;;;;;2.83;1.30;;;;;;;;;;6212768;23;20607;-91
2023/11/29 02:28:50;;;;;;;0.73;0.73;;;;;;;;;;6213683;23;20273;-92
2023/11/29 02:31:56;;;;;;;1.10;1.03;;;;;;;;;;6212500;23;20171;-93
2023/11/29 02:35:01;;;;;;;0.90;0.83;;;;;;;;;;6214380;22;20183;-91
2023/11/29 02:38:06;;;;;;;1.20;0.83;;;;;;;;;;6215200;23;20234;-92
2023/11/29 02:41:14;;;;;;;2.27;1.10;;;;;;;;;;6214701;23;20618;-89
2023/11/29 02:44:19;;;;;;;1.33;0.80;;;;;;;;;;6215883;23;20221;-92
2023/11/29 02:47:24;;;;;;;0.70;0.70;;;;;;;;;;6213370;23;20171;-92
2023/11/29 02:50:29;;;;;;;1.53;0.60;;;;;;;;;;6212737;23;20183;-93
2023/11/29 02:53:35;;;;;;;2.40;1.40;;;;;;;;;;6212477;23;20171;-89
2023/11/29 02:56:41;;;;;;;2.70;1.20;;;;;;;;;;6214145;22;20179;-94
2023/11/29 02:59:46;;;;;;;0.97;0.90;;;;;;;;;;6212667;23;20167;-89
2023/11/29 03:02:52;;;;;;;0.93;0.93;;;;;;;;;;6213030;23;20194;-91
2023/11/29 03:05:57;;;;;;;4.47;1.73;;;;;;;;;;6212214;23;20501;-89
2023/11/29 03:09:02;;;;;;;2.33;1.07;;;;;;;;;;6210789;23;20649;-92
2023/11/29 03:12:09;;;;;;;2.27;1.40;;;;;;;;;;6212015;23;20158;-91
2023/11/29 03:15:15;;;;;;;2.37;1.60;;;;;;;;;;6211821;22;20215;-90
2023/11/29 03:18:20;;;;;;;4.03;1.33;;;;;;;;;;6213244;22;20243;-92
2023/11/29 03:21:28;;;;;;;7.73;1.47;;;;;;;;;;6212580;23;20245;-91
2023/11/29 03:24:33;;;;;;;1.23;1.13;;;;;;;;;;6213135;22;20611;-91
2023/11/29 03:27:40;;;;;;;4.03;1.20;;;;;;;;;;6212722;23;20158;-91
2023/11/29 03:30:45;;;;;;;1.90;1.07;;;;;;;;;;6213309;23;20186;-90
2023/11/29 03:33:50;;;;;;;2.10;1.30;;;;;;;;;;6213278;23;20179;-89
2023/11/29 03:36:55;;;;;;;1.40;1.27;;;;;;;;;;6211967;23;20171;-92
2023/11/29 03:40:00;;;;;;;3.53;2.33;;;;;;;;;;6212675;23;20175;-90
2023/11/29 03:43:07;;;;;;;3.60;1.50;;;;;;;;;;6214140;23;20164;-93
2023/11/29 03:46:12;;;;;;;6.53;1.67;;;;;;;;;;6211932;23;20623;-92
2023/11/29 03:49:17;;;;;;;7.60;2.07;;;;;;;;;;6211614;23;20194;-88
2023/11/29 03:52:24;;;;;;;3.13;1.60;;;;;;;;;;6213117;22;20175;-91
2023/11/29 03:55:29;;;;;;;6.37;2.00;;;;;;;;;;6212717;22;20166;-90
2023/11/29 03:58:35;;;;;;;3.17;2.00;;;;;;;;;;6212374;23;20233;-90
2023/11/29 04:01:41;;;;;;;6.13;2.00;;;;;;;;;;6212459;23;20191;-92
2023/11/29 04:04:46;;;;;;;6.23;2.90;;;;;;;;;;6211555;23;20269;-90
2023/11/29 04:07:51;;;;;;;12.27;2.93;;;;;;;;;;6213099;23;20155;-90
2023/11/29 04:10:56;;;;;;;4.10;2.37;;;;;;;;;;6212701;22;20199;-92
2023/11/29 04:14:03;;;;;;;2.67;1.97;;;;;;;;;;6211811;23;20171;-90
2023/11/29 04:17:08;;;;;;;8.40;3.17;;;;;;;;;;6211516;23;20175;-92
2023/11/29 04:20:14;;;;;;;7.03;3.27;;;;;;;;;;6213249;23;20171;-93
2023/11/29 04:23:19;;;;;;;4.47;2.33;;;;;;;;;;6211210;23;20168;-91
2023/11/29 04:26:25;;;;;;;6.23;1.80;;;;;;;;;;6211411;22;20158;-89
2023/11/29 04:29:32;;;;;;;7.13;3.07;;;;;;;;;;6210129;23;20203;-93
2023/11/29 04:32:37;;;;;;;12.40;4.40;;;;;;;;;;6211294;23;20154;-91
2023/11/29 04:39:02;;;;;;;26.40;3.80;;;;;;;;;;6212665;23;20191;-90
2023/11/29 04:42:07;;;;;;;5.63;3.13;;;;;;;;;;6209665;22;20162;-90
2023/11/29 04:45:14;;;;;;;5.93;2.87;;;;;;;;;;6209086;23;20150;-92
2023/11/29 04:48:21;;;;;;;7.87;3.27;;;;;;;;;;6209290;23;20217;-89
2023/11/29 04:51:27;;;;;;;9.80;3.70;;;;;;;;;;6210225;23;20613;-91
2023/11/29 04:54:32;;;;;;;8.97;3.40;;;;;;;;;;6212202;23;20167;-91
2023/11/29 04:57:37;;;;;;;10.33;3.63;;;;;;;;;;6209062;23;20167;-90
2023/11/29 05:00:44;;;;;;;9.07;3.77;;;;;;;;;;6211374;23;20171;-90
2023/11/29 05:03:49;;;;;;;12.60;4.23;;;;;;;;;;6211472;22;20201;-91
2023/11/29 05:06:54;;;;;;;10.47;3.93;;;;;;;;;;6212256;23;20191;-89
2023/11/29 05:10:00;;;;;;;11.37;4.37;;;;;;;;;;6213162;23;20191;-89
2023/11/29 05:13:06;;;;;;;11.67;5.13;;;;;;;;;;6211140;23;20175;-91
2023/11/29 05:16:13;;;;;;;13.37;5.20;;;;;;;;;;6211134;23;20155;-92
2023/11/29 05:19:19;;;;;;;13.03;5.37;;;;;;;;;;6210522;23;20218;-88
2023/11/29 05:22:25;;;;;;;13.30;4.77;;;;;;;;;;6210411;23;20171;-92
2023/11/29 05:25:30;;;;;;;9.37;4.80;;;;;;;;;;6211046;23;20166;-89
2023/11/29 05:28:35;;;;;;;13.13;5.20;;;;;;;;;;6212408;23;20167;-91
2023/11/29 05:31:43;;;;;;;15.03;5.80;;;;;;;;;;6210195;23;20163;-89
2023/11/29 05:34:48;;;;;;;16.00;6.43;;;;;;;;;;6213510;23;20252;-89
2023/11/29 05:37:54;;;;;;;15.03;5.43;;;;;;;;;;6216828;23;20167;-93
2023/11/29 05:41:00;;;;;;;16.10;5.63;;;;;;;;;;6219960;22;20170;-93
2023/11/29 05:44:08;;;;;;;13.43;5.47;;;;;;;;;;6219083;22;20605;-92
2023/11/29 05:47:15;;;;;;;15.97;5.83;;;;;;;;;;6217884;23;20191;-89
2023/11/29 05:50:20;;;;;;;15.20;6.13;;;;;;;;;;6218075;23;20198;-89
2023/11/29 05:53:28;;;;;;;16.80;6.67;;;;;;;;;;6220212;22;20207;-90
2023/11/29 05:56:35;;;;;;;16.97;7.13;;;;;;;;;;6220517;22;20154;-90
2023/11/29 05:59:43;;;;;;;16.73;6.20;;;;;;;;;;6219497;23;20166;-90
2023/11/29 06:06:27;;;;;;;16.07;5.90;;;;;;;;;;6219720;22;20489;-91
2023/11/29 06:09:32;;;;;;;15.30;6.27;;;;;;;;;;6218747;22;20247;-91
2023/11/29 06:15:58;;;;;;;20.30;6.67;;;;;;;;;;6215694;23;20167;-91
2023/11/29 15:06:43;;;;;;;25.80;10.57;;;;;;;;;;6179798;22;20215;-89
2023/11/29 15:09:49;;;;;;;25.80;11.03;;;;;;;;;;6195548;23;20183;-89
2023/11/29 15:12:54;;;;;;;29.00;11.27;;;;;;;;;;6212082;22;20151;-90
2023/11/29 15:16:00;;;;;;;24.57;9.97;;;;;;;;;;6211502;23;20187;-90
2023/11/29 15:19:06;;;;;;;27.47;11.63;;;;;;;;;;6210701;23;20199;-93
2023/11/29 15:22:13;;;;;;;24.43;9.50;;;;;;;;;;6212606;22;20172;-92
2023/11/29 15:25:20;;;;;;;24.53;10.13;;;;;;;;;;6212881;22;20163;-93
2023/11/29 15:28:25;;;;;;;26.80;10.63;;;;;;;;;;6210192;23;20159;-91
2023/11/29 15:31:30;;;;;;;25.90;10.67;;;;;;;;;;6214007;23;20191;-91
2023/11/29 15:34:36;;;;;;;25.37;9.83;;;;;;;;;;6213180;23;20235;-92
2023/11/29 15:37:43;;;;;;;25.00;8.63;;;;;;;;;;6212237;23;20180;-88
2023/11/29 15:40:49;;;;;;;28.53;11.63;;;;;;;;;;6214487;23;20171;-90
2023/11/29 15:43:54;;;;;;;36.23;13.07;;;;;;;;;;6212937;22;20174;-88
2023/11/29 15:47:00;;;;;;;36.60;13.03;;;;;;;;;;6212542;23;20170;-91
2023/11/29 15:50:06;;;;;;;27.27;11.23;;;;;;;;;;6213363;22;20178;-93
2023/11/29 15:53:16;;;;;;;23.47;9.80;;;;;;;;;;6195223;23;20232;-89
2023/11/29 15:56:21;;;;;;;26.33;10.77;;;;;;;;;;6216123;22;20202;-89
2023/11/29 15:59:27;;;;;;;26.07;11.33;;;;;;;;;;6215927;22;20191;-89
2023/11/29 16:02:33;;;;;;;34.63;11.53;;;;;;;;;;6217855;23;20251;-89
2023/11/29 16:05:41;;;;;;;29.33;10.63;;;;;;;;;;6216096;23;20167;-90
2023/11/29 16:08:49;;;;;;;32.57;11.60;;;;;;;;;;6213610;23;20167;-88
2023/11/29 16:11:54;;;;;;;31.00;11.40;;;;;;;;;;6214908;22;20210;-92
2023/11/29 16:14:59;;;;;;;31.27;11.00;;;;;;;;;;6215134;23;20503;-89
2023/11/29 16:18:04;;;;;;;41.17;18.97;;;;;;;;;;6214713;23;20187;-89
2023/11/29 16:34:32;;;;;;;35.83;14.83;;;;;;;;;;6216911;23;20167;-90
2023/11/29 16:37:41;;;;;;;31.33;14.27;;;;;;;;;;6218118;23;20159;-87
2023/11/29 16:41:02;;;;;;;31.07;13.60;;;;;;;;;;6219155;22;20175;-89
2023/11/29 16:44:18;;;;;;;30.13;12.83;;;;;;;;;;6218779;23;20238;-90
2023/11/29 16:57:23;;;;;;;30.10;11.10;;;;;;;;;;6216340;23;20708;-90
2023/11/29 17:00:33;;;;;;;32.17;11.83;;;;;;;;;;6216855;23;20220;-89
2023/11/29 17:03:39;;;;;;;36.77;12.63;;;;;;;;;;6213395;23;20171;-89
2023/11/29 17:06:53;;;;;;;37.80;13.67;;;;;;;;;;6214282;22;20230;-90
2023/11/29 17:09:59;;;;;;;32.27;14.07;;;;;;;;;;6214119;23;20259;-90
2023/11/29 17:13:04;;;;;;;30.67;12.27;;;;;;;;;;6215079;23;20218;-89
2023/11/29 17:16:12;;;;;;;29.70;11.80;;;;;;;;;;6212692;23;20548;-89
2023/11/29 17:19:22;;;;;;;28.80;10.47;;;;;;;;;;6215432;23;20195;-89
2023/11/29 17:22:29;;;;;;;29.43;12.47;;;;;;;;;;6218125;22;20171;-88
2023/11/29 17:25:36;;;;;;;26.07;10.90;;;;;;;;;;6217154;23;20218;-90
2023/11/29 17:28:42;;;;;;;33.47;13.53;;;;;;;;;;6217007;23;20170;-91
2023/11/29 17:35:18;;;;;;;41.30;18.17;;;;;;;;;;6216496;23;20194;-89
2023/11/29 17:38:23;;;;;;;32.83;13.53;;;;;;;;;;6216959;23;20166;-90
2023/11/29 17:41:32;;;;;;;29.47;12.43;;;;;;;;;;6215057;23;20162;-90
2023/11/29 17:44:39;;;;;;;27.47;11.10;;;;;;;;;;6213492;23;20171;-91
2023/11/29 17:47:46;;;;;;;25.53;11.10;;;;;;;;;;6213334;23;20240;-90
2023/11/29 17:50:51;;;;;;;30.23;12.83;;;;;;;;;;6213847;23;20198;-89
2023/11/29 17:53:58;;;;;;;35.80;13.27;;;;;;;;;;6212924;23;20171;-90
2023/11/29 17:57:05;;;;;;;38.30;15.87;;;;;;;;;;6217348;23;20215;-89
2023/11/29 18:00:12;;;;;;;34.37;15.87;;;;;;;;;;6216668;23;20207;-91
2023/11/29 18:03:23;;;;;;;32.87;13.87;;;;;;;;;;6215671;23;20163;-89
2023/11/29 18:06:28;;;;;;;31.57;13.23;;;;;;;;;;6215984;23;20206;-91
2023/11/29 18:09:33;;;;;;;31.43;13.10;;;;;;;;;;6215714;23;20174;-90
2023/11/29 18:12:39;;;;;;;34.03;15.00;;;;;;;;;;6214067;23;20211;-87
2023/11/29 18:15:47;;;;;;;33.10;11.70;;;;;;;;;;6217272;23;20167;-88
2023/11/29 18:18:54;;;;;;;31.73;12.33;;;;;;;;;;6234120;22;20307;-88
2023/11/29 18:22:00;;;;;;;31.90;13.40;;;;;;;;;;6217507;22;20168;-88
2023/11/29 18:25:06;;;;;;;36.17;16.00;;;;;;;;;;6218636;23;20187;-88
2023/11/29 18:28:13;;;;;;;26.67;11.13;;;;;;;;;;6218017;23;20183;-90
2023/11/29 18:31:19;;;;;;;41.23;17.30;;;;;;;;;;6212779;23;20199;-92
2023/11/29 18:34:26;;;;;;;37.40;15.37;;;;;;;;;;6211247;22;20251;-90
2023/11/29 18:37:31;;;;;;;49.43;19.70;;;;;;;;;;6213035;22;20163;-90
2023/11/29 18:40:37;;;;;;;60.37;27.60;;;;;;;;;;6213760;23;20209;-91
2023/11/29 18:43:42;;;;;;;47.30;21.07;;;;;;;;;;6211671;23;20174;-89
2023/11/29 18:46:47;;;;;;;37.40;16.80;;;;;;;;;;6214568;23;20681;-88
2023/11/29 18:49:54;;;;;;;40.57;17.87;;;;;;;;;;6212488;22;20194;-88
2023/11/29 18:52:59;;;;;;;50.13;19.77;;;;;;;;;;6212144;23;20238;-90
2023/11/29 18:56:06;;;;;;;47.27;20.50;;;;;;;;;;6212770;23;20175;-92
2023/11/29 18:59:13;;;;;;;53.00;22.07;;;;;;;;;;6213149;23;20172;-89
2023/11/29 19:02:18;;;;;;;39.80;18.20;;;;;;;;;;6214356;23;20191;-90
2023/11/29 19:05:25;;;;;;;33.53;14.00;;;;;;;;;;6213247;23;20167;-90
2023/11/29 19:08:31;;;;;;;37.17;16.60;;;;;;;;;;6214196;23;20194;-90
2023/11/29 19:11:37;;;;;;;37.00;14.70;;;;;;;;;;6214170;23;20178;-87
2023/11/29 19:14:42;;;;;;;38.90;15.53;;;;;;;;;;6213599;22;20166;-87
2023/11/29 19:17:48;;;;;;;36.43;16.33;;;;;;;;;;6214004;23;20172;-87
2023/11/29 19:20:55;;;;;;;34.93;15.83;;;;;;;;;;6212641;23;20167;-89
2023/11/29 19:24:01;;;;;;;29.50;12.83;;;;;;;;;;6214117;23;20163;-90
2023/11/29 19:27:07;;;;;;;26.27;11.13;;;;;;;;;;6231798;23;20171;-90
2023/11/29 19:30:13;;;;;;;28.60;11.17;;;;;;;;;;6213693;22;20468;-90
2023/11/29 19:33:19;;;;;;;28.93;11.40;;;;;;;;;;6213311;23;20170;-87
2023/11/29 19:36:26;;;;;;;33.77;12.07;;;;;;;;;;6212355;23;20223;-89
2023/11/29 19:39:41;;;;;;;35.40;13.43;;;;;;;;;;6212575;23;20250;-89
2023/11/29 19:42:47;;;;;;;34.87;12.97;;;;;;;;;;6210068;23;20175;-88
2023/11/29 19:45:52;;;;;;;31.43;13.40;;;;;;;;;;6211593;22;20555;-90
2023/11/29 19:48:58;;;;;;;35.53;11.63;;;;;;;;;;6211617;23;20635;-89
2023/11/29 19:52:05;;;;;;;31.30;12.17;;;;;;;;;;6212086;23;20187;-90
2023/11/29 19:55:10;;;;;;;33.97;12.90;;;;;;;;;;6211362;23;20220;-90
2023/11/29 19:58:16;;;;;;;34.97;12.13;;;;;;;;;;6209705;23;20171;-88
2023/11/29 20:01:23;;;;;;;39.10;13.07;;;;;;;;;;6209264;23;20191;-89
2023/11/29 20:04:29;;;;;;;41.83;15.93;;;;;;;;;;6211131;23;20180;-89
2023/11/29 20:07:52;;;;;;;;;;;;;;;;;;;;;
2023/11/29 20:11:09;;;;;;;37.33;14.87;;;;;;;;;;6210214;23;20642;-89
2023/11/29 20:14:28;;;;;;;32.80;14.27;;;;;;;;;;6211221;23;20206;-90
2023/11/29 20:17:45;;;;;;;33.73;15.00;;;;;;;;;;6209196;23;20163;-92
2023/11/29 20:20:53;;;;;;;34.33;14.90;;;;;;;;;;6206990;23;20199;-87
2023/11/29 20:24:19;;;;;;;30.40;13.57;;;;;;;;;;6209429;23;20191;-90
2023/11/29 20:27:50;;;;;;;33.87;14.17;;;;;;;;;;6211953;23;20226;-89
2023/11/29 20:30:58;;;;;;;34.17;15.27;;;;;;;;;;6212409;23;20161;-89
2023/11/29 20:34:04;;;;;;;29.53;13.60;;;;;;;;;;6217178;23;20163;-86
2023/11/29 20:37:09;;;;;;;34.03;14.87;;;;;;;;;;6212310;23;20216;-89
2023/11/29 20:43:34;;;;;;;39.90;18.93;;;;;;;;;;6213927;23;20166;-87
2023/11/29 20:46:41;;;;;;;38.80;16.70;;;;;;;;;;6213156;23;20254;-90
2023/11/29 20:49:47;;;;;;;34.67;13.67;;;;;;;;;;6210683;22;20191;-87
2023/11/29 20:52:52;;;;;;;36.13;15.73;;;;;;;;;;6211754;23;20526;-90
2023/11/29 20:55:58;;;;;;;34.90;12.70;;;;;;;;;;6211408;23;20178;-90
2023/11/29 20:59:03;;;;;;;34.03;12.20;;;;;;;;;;6212352;23;20659;-88
2023/11/29 21:02:10;;;;;;;55.60;19.03;;;;;;;;;;6210716;23;20170;-90
2023/11/29 21:05:16;;;;;;;36.63;13.70;;;;;;;;;;6209575;23;20163;-91
2023/11/29 21:08:22;;;;;;;33.60;11.80;;;;;;;;;;6208164;23;20354;-89
2023/11/29 21:11:28;;;;;;;36.73;15.00;;;;;;;;;;6209425;23;20240;-89
2023/11/29 21:14:34;;;;;;;32.67;11.80;;;;;;;;;;6210690;23;20299;-91
2023/11/29 21:17:41;;;;;;;32.53;11.53;;;;;;;;;;6209563;23;20166;-90
2023/11/29 21:20:49;;;;;;;34.10;12.80;;;;;;;;;;6208024;23;20261;-88
2023/11/29 21:23:54;;;;;;;29.40;12.07;;;;;;;;;;6210013;22;20171;-86
2023/11/29 21:26:59;;;;;;;25.77;11.20;;;;;;;;;;6208308;22;20167;-90
2023/11/29 21:30:05;;;;;;;24.87;10.43;;;;;;;;;;6210107;23;20166;-90
2023/11/29 21:33:16;;;;;;;25.00;9.23;;;;;;;;;;6210675;23;20190;-87
2023/11/29 21:36:21;;;;;;;24.53;9.73;;;;;;;;;;6208670;23;20250;-87
2023/11/29 21:39:26;;;;;;;23.57;9.73;;;;;;;;;;6209683;23;20170;-88
2023/11/29 21:42:31;;;;;;;33.43;10.43;;;;;;;;;;6209311;23;20253;-92
2023/11/29 21:45:37;;;;;;;26.20;10.13;;;;;;;;;;6209323;23;20692;-88
2023/11/29 21:48:45;;;;;;;25.27;10.07;;;;;;;;;;6209748;23;20174;-88
2023/11/29 21:51:50;;;;;;;23.50;10.10;;;;;;;;;;6208380;23;20273;-89
2023/11/29 21:54:56;;;;;;;32.53;13.17;;;;;;;;;;6209491;23;20175;-88
2023/11/29 21:58:01;;;;;;;35.07;12.93;;;;;;;;;;6210989;23;20167;-89
2023/11/29 22:01:06;;;;;;;32.80;13.67;;;;;;;;;;6208416;23;20170;-87
2023/11/29 22:04:18;;;;;;;30.27;12.40;;;;;;;;;;6212606;22;20171;-90
2023/11/29 22:07:23;;;;;;;29.00;12.57;;;;;;;;;;6212072;23;20253;-91
2023/11/29 22:10:32;;;;;;;23.50;9.60;;;;;;;;;;6209759;23;20170;-91
2023/11/29 22:13:37;;;;;;;26.70;9.93;;;;;;;;;;6207580;23;20297;-89
2023/11/29 22:16:42;;;;;;;28.33;10.37;;;;;;;;;;6208305;23;20156;-90
2023/11/29 22:19:48;;;;;;;27.93;10.17;;;;;;;;;;6209242;23;20170;-88
2023/11/29 22:22:53;;;;;;;27.17;10.23;;;;;;;;;;6210586;23;20240;-92
2023/11/29 22:25:59;;;;;;;22.17;9.50;;;;;;;;;;6211054;23;20191;-89
2023/11/29 22:29:04;;;;;;;23.20;9.50;;;;;;;;;;6211452;23;20247;-91
2023/11/29 22:32:09;;;;;;;23.80;9.13;;;;;;;;;;6210761;23;20513;-92
2023/11/29 22:35:19;;;;;;;23.93;9.20;;;;;;;;;;6210736;22;20211;-92
2023/11/29 22:38:25;;;;;;;22.83;9.03;;;;;;;;;;6209821;23;20159;-93
2023/11/29 22:41:30;;;;;;;25.27;10.93;;;;;;;;;;6209429;23;20689;-90
2023/11/29 22:44:35;;;;;;;26.97;10.93;;;;;;;;;;6209997;23;20218;-90
2023/11/29 22:47:40;;;;;;;26.40;10.57;;;;;;;;;;6210228;23;20202;-93
2023/11/29 22:50:47;;;;;;;24.57;10.53;;;;;;;;;;6208512;23;20175;-87
2023/11/29 22:53:53;;;;;;;23.27;10.73;;;;;;;;;;6209806;23;20214;-91
2023/11/29 22:56:59;;;;;;;28.00;11.83;;;;;;;;;;6210377;22;20163;-90
2023/11/29 23:00:06;;;;;;;24.10;11.00;;;;;;;;;;6210681;23;20171;-90
2023/11/29 23:03:11;;;;;;;26.43;10.70;;;;;;;;;;6209665;23;20171;-92
2023/11/29 23:06:19;;;;;;;25.97;10.93;;;;;;;;;;6210012;23;20167;-91
2023/11/29 23:09:25;;;;;;;25.00;10.50;;;;;;;;;;6209002;23;20171;-87
2023/11/29 23:12:30;;;;;;;24.53;10.83;;;;;;;;;;6209352;23;20171;-88
2023/11/29 23:15:35;;;;;;;27.60;10.63;;;;;;;;;;6210601;23;20187;-89
2023/11/29 23:18:41;;;;;;;25.83;11.17;;;;;;;;;;6209382;23;20174;-92
2023/11/29 23:21:48;;;;;;;20.53;9.87;;;;;;;;;;6210236;23;20175;-90
2023/11/29 23:24:54;;;;;;;23.30;10.47;;;;;;;;;;6208978;23;20179;-87
2023/11/29 23:27:59;;;;;;;30.63;12.20;;;;;;;;;;6208636;23;20515;-88
2023/11/29 23:31:05;;;;;;;28.57;12.00;;;;;;;;;;6208838;23;20247;-87
2023/11/29 23:34:10;;;;;;;29.60;12.00;;;;;;;;;;6208758;23;20261;-90
2023/11/29 23:37:16;;;;;;;35.07;12.47;;;;;;;;;;6209319;23;20186;-90
2023/11/29 23:40:22;;;;;;;30.57;12.87;;;;;;;;;;6209505;23;20246;-87
2023/11/29 23:43:27;;;;;;;31.00;13.50;;;;;;;;;;6207944;23;20623;-90
2023/11/29 23:46:32;;;;;;;31.07;12.03;;;;;;;;;;6208288;23;20166;-88
2023/11/29 23:49:37;;;;;;;29.37;12.20;;;;;;;;;;6207483;22;20187;-90
2023/11/29 23:52:43;;;;;;;28.47;12.03;;;;;;;;;;6208273;23;20302;-89
2023/11/29 23:55:48;;;;;;;28.27;11.53;;;;;;;;;;6208213;23;20163;-90
2023/11/29 23:58:54;;;;;;;26.13;11.77;;;;;;;;;;6227763;23;20507;-89
